sensor_id;sensor_type;location;lat;lon;timestamp;pressure;altitude;pressure_sealevel;temperature;humidity
22872;BME280;11603;44.910;8.630;2023-06-22T00:00:53;100862.53;;;24.90;62.96
22872;BME280;11603;44.910;8.630;2023-06-22T00:03:20;100858.75;;;24.91;64.01
22872;BME280;11603;44.910;8.630;2023-06-22T00:05:46;100852.94;;;24.86;63.95
22872;BME280;11603;44.910;8.630;2023-06-22T00:08:12;100853.13;;;24.84;64.02
22872;BME280;11603;44.910;8.630;2023-06-22T00:10:38;100856.72;;;24.85;66.37
22872;BME280;11603;44.910;8.630;2023-06-22T00:13:04;100856.19;;;24.81;69.81
22872;BME280;11603;44.910;8.630;2023-06-22T00:15:29;100853.16;;;24.76;75.16
22872;BME280;11603;44.910;8.630;2023-06-22T00:17:55;100872.00;;;24.71;71.28
22872;BME280;11603;44.910;8.630;2023-06-22T00:20:22;100855.34;;;24.58;72.40
22872;BME280;11603;44.910;8.630;2023-06-22T00:22:48;100853.00;;;24.47;73.41
22872;BME280;11603;44.910;8.630;2023-06-22T00:25:13;100868.06;;;24.43;74.01
22872;BME280;11603;44.910;8.630;2023-06-22T00:27:39;100854.94;;;24.38;74.38
22872;BME280;11603;44.910;8.630;2023-06-22T00:30:06;100854.41;;;24.35;74.04
22872;BME280;11603;44.910;8.630;2023-06-22T00:32:31;100840.78;;;24.27;72.85
22872;BME280;11603;44.910;8.630;2023-06-22T00:34:57;100841.66;;;24.27;74.00
22872;BME280;11603;44.910;8.630;2023-06-22T00:37:22;100849.13;;;24.33;73.07
22872;BME280;11603;44.910;8.630;2023-06-22T00:39:52;100850.34;;;24.31;72.86
22872;BME280;11603;44.910;8.630;2023-06-22T00:42:18;100856.50;;;24.33;68.17
22872;BME280;11603;44.910;8.630;2023-06-22T00:44:44;100853.69;;;24.41;70.73
22872;BME280;11603;44.910;8.630;2023-06-22T00:47:11;100847.03;;;24.43;67.40
22872;BME280;11603;44.910;8.630;2023-06-22T00:49:39;100849.22;;;24.48;66.83
22872;BME280;11603;44.910;8.630;2023-06-22T00:52:05;100852.94;;;24.55;66.98
22872;BME280;11603;44.910;8.630;2023-06-22T00:54:35;100858.78;;;24.52;67.91
22872;BME280;11603;44.910;8.630;2023-06-22T00:57:02;100858.94;;;24.51;68.85
22872;BME280;11603;44.910;8.630;2023-06-22T00:59:27;100849.09;;;24.41;68.91
22872;BME280;11603;44.910;8.630;2023-06-22T01:01:53;100851.91;;;24.25;69.51
22872;BME280;11603;44.910;8.630;2023-06-22T01:04:18;100852.44;;;24.21;71.19
22872;BME280;11603;44.910;8.630;2023-06-22T01:06:56;100847.97;;;24.20;71.48
22872;BME280;11603;44.910;8.630;2023-06-22T01:09:31;100851.75;;;24.19;71.69
22872;BME280;11603;44.910;8.630;2023-06-22T01:12:01;100850.72;;;24.12;72.92
22872;BME280;11603;44.910;8.630;2023-06-22T01:14:35;100856.91;;;24.05;74.29
22872;BME280;11603;44.910;8.630;2023-06-22T01:17:05;100848.84;;;24.12;74.90
22872;BME280;11603;44.910;8.630;2023-06-22T01:19:46;100834.34;;;24.12;74.11
22872;BME280;11603;44.910;8.630;2023-06-22T01:22:17;100822.16;;;24.14;75.92
22872;BME280;11603;44.910;8.630;2023-06-22T01:30:11;100843.97;;;23.91;82.08
22872;BME280;11603;44.910;8.630;2023-06-22T01:32:40;100845.00;;;23.90;82.22
22872;BME280;11603;44.910;8.630;2023-06-22T01:35:08;100855.59;;;23.85;83.36
22872;BME280;11603;44.910;8.630;2023-06-22T01:37:35;100860.41;;;23.75;82.23
22872;BME280;11603;44.910;8.630;2023-06-22T01:40:02;100860.72;;;23.72;83.00
22872;BME280;11603;44.910;8.630;2023-06-22T01:42:31;100866.56;;;23.61;82.21
22872;BME280;11603;44.910;8.630;2023-06-22T01:44:57;100865.69;;;23.60;82.90
22872;BME280;11603;44.910;8.630;2023-06-22T01:47:24;100857.00;;;23.65;82.47
22872;BME280;11603;44.910;8.630;2023-06-22T01:49:50;100867.06;;;23.64;82.38
22872;BME280;11603;44.910;8.630;2023-06-22T01:52:20;100854.28;;;23.57;81.83
22872;BME280;11603;44.910;8.630;2023-06-22T01:54:48;100855.81;;;23.59;81.22
22872;BME280;11603;44.910;8.630;2023-06-22T01:57:14;100843.16;;;23.67;81.01
22872;BME280;11603;44.910;8.630;2023-06-22T02:00:03;100845.69;;;23.76;81.11
22872;BME280;11603;44.910;8.630;2023-06-22T02:02:54;100847.44;;;23.69;81.53
22872;BME280;11603;44.910;8.630;2023-06-22T02:05:23;100844.00;;;23.67;81.49
22872;BME280;11603;44.910;8.630;2023-06-22T02:08:11;100844.00;;;23.67;81.52
22872;BME280;11603;44.910;8.630;2023-06-22T02:10:42;100848.94;;;23.72;81.93
22872;BME280;11603;44.910;8.630;2023-06-22T02:13:10;100841.59;;;23.72;82.81
22872;BME280;11603;44.910;8.630;2023-06-22T02:15:36;100846.56;;;23.69;84.71
22872;BME280;11603;44.910;8.630;2023-06-22T02:18:02;100833.59;;;23.62;84.21
22872;BME280;11603;44.910;8.630;2023-06-22T02:20:28;100840.47;;;23.58;84.22
22872;BME280;11603;44.910;8.630;2023-06-22T02:22:55;100839.63;;;23.50;84.47
22872;BME280;11603;44.910;8.630;2023-06-22T02:25:21;100843.53;;;23.47;84.21
22872;BME280;11603;44.910;8.630;2023-06-22T02:27:46;100849.47;;;23.35;87.14
22872;BME280;11603;44.910;8.630;2023-06-22T02:30:12;100846.94;;;23.25;88.81
22872;BME280;11603;44.910;8.630;2023-06-22T02:32:40;100859.03;;;23.14;90.73
22872;BME280;11603;44.910;8.630;2023-06-22T02:35:09;100856.63;;;23.03;89.85
22872;BME280;11603;44.910;8.630;2023-06-22T02:37:38;100861.59;;;23.00;86.28
22872;BME280;11603;44.910;8.630;2023-06-22T02:40:07;100854.09;;;23.02;87.17
22872;BME280;11603;44.910;8.630;2023-06-22T02:42:35;100868.41;;;23.04;89.31
22872;BME280;11603;44.910;8.630;2023-06-22T02:45:01;100864.16;;;23.01;88.30
22872;BME280;11603;44.910;8.630;2023-06-22T02:47:26;100872.50;;;23.00;88.82
22872;BME280;11603;44.910;8.630;2023-06-22T02:49:52;100875.41;;;23.06;88.24
22872;BME280;11603;44.910;8.630;2023-06-22T02:52:18;100881.72;;;23.07;87.72
22872;BME280;11603;44.910;8.630;2023-06-22T02:54:43;100874.75;;;23.12;89.58
22872;BME280;11603;44.910;8.630;2023-06-22T02:57:12;100867.22;;;23.14;89.88
22872;BME280;11603;44.910;8.630;2023-06-22T02:59:42;100858.34;;;23.20;88.25
22872;BME280;11603;44.910;8.630;2023-06-22T03:02:10;100855.97;;;23.26;87.89
22872;BME280;11603;44.910;8.630;2023-06-22T03:04:36;100858.53;;;23.27;88.20
22872;BME280;11603;44.910;8.630;2023-06-22T03:07:02;100853.25;;;23.26;87.97
22872;BME280;11603;44.910;8.630;2023-06-22T03:09:29;100843.69;;;23.21;88.44
22872;BME280;11603;44.910;8.630;2023-06-22T03:11:57;100849.16;;;23.21;90.50
22872;BME280;11603;44.910;8.630;2023-06-22T03:14:26;100846.41;;;23.21;89.87
22872;BME280;11603;44.910;8.630;2023-06-22T03:16:52;100838.41;;;23.20;89.56
22872;BME280;11603;44.910;8.630;2023-06-22T03:19:18;100833.78;;;23.20;89.99
22872;BME280;11603;44.910;8.630;2023-06-22T03:21:44;100831.75;;;23.22;90.11
22872;BME280;11603;44.910;8.630;2023-06-22T03:24:10;100829.88;;;23.23;89.54
22872;BME280;11603;44.910;8.630;2023-06-22T03:26:37;100834.81;;;23.28;89.22
22872;BME280;11603;44.910;8.630;2023-06-22T03:29:02;100829.00;;;23.31;88.55
22872;BME280;11603;44.910;8.630;2023-06-22T03:31:30;100826.97;;;23.33;88.95
22872;BME280;11603;44.910;8.630;2023-06-22T03:33:56;100824.41;;;23.31;89.42
22872;BME280;11603;44.910;8.630;2023-06-22T03:36:22;100825.09;;;23.25;89.78
22872;BME280;11603;44.910;8.630;2023-06-22T03:38:49;100821.16;;;23.19;90.08
22872;BME280;11603;44.910;8.630;2023-06-22T03:41:15;100812.47;;;23.16;90.06
22872;BME280;11603;44.910;8.630;2023-06-22T03:43:41;100813.50;;;23.15;89.09
22872;BME280;11603;44.910;8.630;2023-06-22T03:46:07;100817.94;;;23.16;88.62
22872;BME280;11603;44.910;8.630;2023-06-22T03:48:33;100820.50;;;23.17;88.27
22872;BME280;11603;44.910;8.630;2023-06-22T03:51:00;100827.84;;;23.17;89.43
22872;BME280;11603;44.910;8.630;2023-06-22T03:53:26;100824.75;;;23.12;89.18
22872;BME280;11603;44.910;8.630;2023-06-22T03:55:52;100817.44;;;23.12;88.80
22872;BME280;11603;44.910;8.630;2023-06-22T03:58:21;100821.16;;;23.19;89.64
22872;BME280;11603;44.910;8.630;2023-06-22T04:00:48;100829.69;;;23.24;89.00
22872;BME280;11603;44.910;8.630;2023-06-22T04:03:14;100838.72;;;23.25;88.66
22872;BME280;11603;44.910;8.630;2023-06-22T04:05:41;100843.19;;;23.26;87.69
22872;BME280;11603;44.910;8.630;2023-06-22T04:08:07;100825.28;;;23.23;88.26
22872;BME280;11603;44.910;8.630;2023-06-22T04:10:33;100808.03;;;23.23;87.82
22872;BME280;11603;44.910;8.630;2023-06-22T04:12:59;100811.78;;;23.22;89.13
22872;BME280;11603;44.910;8.630;2023-06-22T04:15:25;100826.47;;;23.21;89.36
22872;BME280;11603;44.910;8.630;2023-06-22T04:17:50;100841.47;;;23.25;88.78
22872;BME280;11603;44.910;8.630;2023-06-22T04:20:15;100855.63;;;23.20;90.87
22872;BME280;11603;44.910;8.630;2023-06-22T04:22:41;100880.88;;;23.14;94.71
22872;BME280;11603;44.910;8.630;2023-06-22T04:25:07;100891.81;;;23.22;90.00
22872;BME280;11603;44.910;8.630;2023-06-22T04:27:35;100871.84;;;23.22;89.22
22872;BME280;11603;44.910;8.630;2023-06-22T04:30:03;100862.44;;;23.24;90.04
22872;BME280;11603;44.910;8.630;2023-06-22T04:32:29;100863.81;;;23.20;86.60
22872;BME280;11603;44.910;8.630;2023-06-22T04:34:54;100859.91;;;23.23;86.48
22872;BME280;11603;44.910;8.630;2023-06-22T04:37:20;100871.00;;;23.21;83.34
22872;BME280;11603;44.910;8.630;2023-06-22T04:39:49;100872.34;;;23.09;85.01
22872;BME280;11603;44.910;8.630;2023-06-22T04:42:14;100867.06;;;23.16;84.48
22872;BME280;11603;44.910;8.630;2023-06-22T04:44:40;100865.03;;;23.18;83.88
22872;BME280;11603;44.910;8.630;2023-06-22T04:47:06;100876.59;;;23.20;85.38
22872;BME280;11603;44.910;8.630;2023-06-22T04:49:35;100897.91;;;23.08;87.21
22872;BME280;11603;44.910;8.630;2023-06-22T04:52:11;100900.13;;;22.97;90.17
22872;BME280;11603;44.910;8.630;2023-06-22T04:54:37;100902.00;;;22.96;93.23
22872;BME280;11603;44.910;8.630;2023-06-22T04:57:05;100902.03;;;23.12;96.75
22872;BME280;11603;44.910;8.630;2023-06-22T04:59:35;100891.63;;;23.16;91.23
22872;BME280;11603;44.910;8.630;2023-06-22T05:02:02;100894.50;;;23.14;90.78
22872;BME280;11603;44.910;8.630;2023-06-22T05:04:29;100892.47;;;23.08;94.90
22872;BME280;11603;44.910;8.630;2023-06-22T05:06:58;100890.78;;;23.15;96.03
22872;BME280;11603;44.910;8.630;2023-06-22T05:09:24;100894.00;;;23.11;98.58
22872;BME280;11603;44.910;8.630;2023-06-22T05:11:51;100893.00;;;23.12;99.28
22872;BME280;11603;44.910;8.630;2023-06-22T05:14:17;100897.59;;;23.19;100.00
22872;BME280;11603;44.910;8.630;2023-06-22T05:16:44;100897.59;;;23.19;100.00
22872;BME280;11603;44.910;8.630;2023-06-22T05:19:10;100874.91;;;23.27;100.00
22872;BME280;11603;44.910;8.630;2023-06-22T05:21:36;100883.09;;;23.35;100.00
22872;BME280;11603;44.910;8.630;2023-06-22T05:24:02;100890.78;;;23.40;100.00
22872;BME280;11603;44.910;8.630;2023-06-22T05:26:29;100894.56;;;23.39;100.00
22872;BME280;11603;44.910;8.630;2023-06-22T05:28:54;100903.78;;;23.62;100.00
22872;BME280;11603;44.910;8.630;2023-06-22T05:31:20;100909.56;;;23.91;100.00
22872;BME280;11603;44.910;8.630;2023-06-22T05:33:47;100904.25;;;23.90;100.00
22872;BME280;11603;44.910;8.630;2023-06-22T05:36:13;100910.44;;;23.68;100.00
22872;BME280;11603;44.910;8.630;2023-06-22T05:38:39;100919.44;;;23.76;100.00
22872;BME280;11603;44.910;8.630;2023-06-22T05:41:05;100918.28;;;23.79;100.00
22872;BME280;11603;44.910;8.630;2023-06-22T05:43:31;100910.06;;;23.79;100.00
22872;BME280;11603;44.910;8.630;2023-06-22T05:45:57;100920.81;;;23.72;100.00
22872;BME280;11603;44.910;8.630;2023-06-22T05:48:22;100915.06;;;23.59;100.00
22872;BME280;11603;44.910;8.630;2023-06-22T05:50:48;100906.31;;;23.55;99.34
22872;BME280;11603;44.910;8.630;2023-06-22T05:53:14;100899.69;;;23.58;98.42
22872;BME280;11603;44.910;8.630;2023-06-22T05:55:39;100908.38;;;23.61;97.83
22872;BME280;11603;44.910;8.630;2023-06-22T05:58:05;100905.63;;;23.78;97.30
22872;BME280;11603;44.910;8.630;2023-06-22T06:00:32;100911.56;;;23.97;96.37
22872;BME280;11603;44.910;8.630;2023-06-22T06:02:58;100913.59;;;24.20;95.99
22872;BME280;11603;44.910;8.630;2023-06-22T06:05:35;100917.13;;;24.36;98.83
22872;BME280;11603;44.910;8.630;2023-06-22T06:08:02;100923.94;;;24.48;99.26
22872;BME280;11603;44.910;8.630;2023-06-22T06:10:30;100926.59;;;24.65;99.31
22872;BME280;11603;44.910;8.630;2023-06-22T06:12:56;100937.34;;;24.66;95.68
22872;BME280;11603;44.910;8.630;2023-06-22T06:15:22;100921.69;;;24.52;94.89
22872;BME280;11603;44.910;8.630;2023-06-22T06:17:48;100924.56;;;24.59;95.18
22872;BME280;11603;44.910;8.630;2023-06-22T06:20:14;100906.72;;;24.71;95.25
22872;BME280;11603;44.910;8.630;2023-06-22T06:22:40;100907.34;;;24.81;96.52
22872;BME280;11603;44.910;8.630;2023-06-22T06:25:05;100905.28;;;24.91;97.88
22872;BME280;11603;44.910;8.630;2023-06-22T06:27:31;100901.28;;;25.02;95.46
22872;BME280;11603;44.910;8.630;2023-06-22T06:29:57;100886.81;;;25.16;96.03
22872;BME280;11603;44.910;8.630;2023-06-22T06:32:22;100893.13;;;25.16;95.87
22872;BME280;11603;44.910;8.630;2023-06-22T06:34:48;100889.53;;;25.16;94.09
22872;BME280;11603;44.910;8.630;2023-06-22T06:37:13;100886.06;;;25.22;93.74
22872;BME280;11603;44.910;8.630;2023-06-22T06:39:39;100887.88;;;25.29;93.56
22872;BME280;11603;44.910;8.630;2023-06-22T06:42:05;100868.28;;;25.41;92.86
22872;BME280;11603;44.910;8.630;2023-06-22T06:44:30;100860.28;;;25.54;92.18
22872;BME280;11603;44.910;8.630;2023-06-22T06:46:56;100856.28;;;25.64;87.55
22872;BME280;11603;44.910;8.630;2023-06-22T06:49:21;100856.88;;;25.75;87.11
22872;BME280;11603;44.910;8.630;2023-06-22T06:51:47;100841.75;;;25.93;83.68
22872;BME280;11603;44.910;8.630;2023-06-22T06:54:12;100834.63;;;26.13;80.92
22872;BME280;11603;44.910;8.630;2023-06-22T06:56:39;100840.34;;;26.27;81.35
22872;BME280;11603;44.910;8.630;2023-06-22T06:59:04;100850.16;;;26.36;77.13
22872;BME280;11603;44.910;8.630;2023-06-22T07:01:30;100861.22;;;26.42;81.89
22872;BME280;11603;44.910;8.630;2023-06-22T07:03:59;100860.00;;;26.30;77.77
22872;BME280;11603;44.910;8.630;2023-06-22T07:06:25;100859.91;;;26.24;80.98
22872;BME280;11603;44.910;8.630;2023-06-22T07:08:55;100868.59;;;26.12;79.78
22872;BME280;11603;44.910;8.630;2023-06-22T07:11:20;100891.59;;;26.11;78.74
22872;BME280;11603;44.910;8.630;2023-06-22T07:13:46;100890.34;;;25.99;77.28
22872;BME280;11603;44.910;8.630;2023-06-22T07:16:11;100887.88;;;25.90;76.54
22872;BME280;11603;44.910;8.630;2023-06-22T07:18:39;100882.00;;;25.93;77.23
22872;BME280;11603;44.910;8.630;2023-06-22T07:21:04;100885.03;;;25.98;77.40
22872;BME280;11603;44.910;8.630;2023-06-22T07:23:32;100878.41;;;26.07;76.79
22872;BME280;11603;44.910;8.630;2023-06-22T07:25:58;100881.72;;;26.17;73.71
22872;BME280;11603;44.910;8.630;2023-06-22T07:28:27;100885.91;;;26.28;72.24
22872;BME280;11603;44.910;8.630;2023-06-22T07:30:53;100893.66;;;26.39;73.07
22872;BME280;11603;44.910;8.630;2023-06-22T07:33:18;100889.97;;;26.46;72.02
22872;BME280;11603;44.910;8.630;2023-06-22T07:35:44;100893.59;;;26.32;66.32
22872;BME280;11603;44.910;8.630;2023-06-22T07:38:10;100898.31;;;26.24;71.15
22872;BME280;11603;44.910;8.630;2023-06-22T07:40:35;100902.94;;;26.23;72.61
22872;BME280;11603;44.910;8.630;2023-06-22T07:43:02;100899.25;;;26.31;73.41
22872;BME280;11603;44.910;8.630;2023-06-22T07:45:29;100897.94;;;26.41;73.02
22872;BME280;11603;44.910;8.630;2023-06-22T07:47:54;100898.03;;;26.48;73.70
22872;BME280;11603;44.910;8.630;2023-06-22T07:50:20;100893.84;;;26.52;75.20
22872;BME280;11603;44.910;8.630;2023-06-22T07:52:46;100891.19;;;26.59;73.69
22872;BME280;11603;44.910;8.630;2023-06-22T07:55:13;100886.00;;;26.64;75.55
22872;BME280;11603;44.910;8.630;2023-06-22T07:57:38;100887.91;;;26.84;73.80
22872;BME280;11603;44.910;8.630;2023-06-22T08:00:05;100891.88;;;26.96;73.63
22872;BME280;11603;44.910;8.630;2023-06-22T08:02:43;100894.78;;;27.10;72.25
22872;BME280;11603;44.910;8.630;2023-06-22T08:05:09;100895.75;;;27.23;71.98
22872;BME280;11603;44.910;8.630;2023-06-22T08:07:36;100900.59;;;27.21;70.78
22872;BME280;11603;44.910;8.630;2023-06-22T08:10:05;100891.00;;;27.32;75.66
22872;BME280;11603;44.910;8.630;2023-06-22T08:12:31;100888.09;;;27.40;72.81
22872;BME280;11603;44.910;8.630;2023-06-22T08:14:56;100886.28;;;27.47;73.21
22872;BME280;11603;44.910;8.630;2023-06-22T08:17:26;100877.97;;;27.62;72.78
22872;BME280;11603;44.910;8.630;2023-06-22T08:19:51;100875.09;;;27.76;70.91
22872;BME280;11603;44.910;8.630;2023-06-22T08:22:17;100866.31;;;27.88;72.07
22872;BME280;11603;44.910;8.630;2023-06-22T08:24:43;100874.38;;;27.89;73.60
22872;BME280;11603;44.910;8.630;2023-06-22T08:27:09;100874.19;;;27.97;71.73
22872;BME280;11603;44.910;8.630;2023-06-22T08:29:37;100867.91;;;28.03;71.04
22872;BME280;11603;44.910;8.630;2023-06-22T08:32:03;100872.88;;;28.14;70.04
22872;BME280;11603;44.910;8.630;2023-06-22T08:34:28;100864.84;;;28.19;67.48
22872;BME280;11603;44.910;8.630;2023-06-22T08:36:54;100846.50;;;28.33;69.30
22872;BME280;11603;44.910;8.630;2023-06-22T08:39:20;100834.25;;;28.42;67.25
22872;BME280;11603;44.910;8.630;2023-06-22T08:41:48;100831.97;;;28.59;67.28
22872;BME280;11603;44.910;8.630;2023-06-22T08:44:17;100818.94;;;28.74;66.31
22872;BME280;11603;44.910;8.630;2023-06-22T08:46:44;100834.84;;;28.85;61.10
22872;BME280;11603;44.910;8.630;2023-06-22T08:49:10;100827.63;;;28.84;52.16
22872;BME280;11603;44.910;8.630;2023-06-22T08:51:37;100840.38;;;28.92;48.80
22872;BME280;11603;44.910;8.630;2023-06-22T08:54:03;100834.25;;;29.03;49.63
22872;BME280;11603;44.910;8.630;2023-06-22T08:56:28;100823.47;;;29.15;48.56
22872;BME280;11603;44.910;8.630;2023-06-22T08:58:54;100815.84;;;29.23;47.30
22872;BME280;11603;44.910;8.630;2023-06-22T09:01:20;100825.41;;;29.34;47.56
22872;BME280;11603;44.910;8.630;2023-06-22T09:03:45;100825.81;;;29.44;47.85
22872;BME280;11603;44.910;8.630;2023-06-22T09:06:22;100828.59;;;29.51;50.94
22872;BME280;11603;44.910;8.630;2023-06-22T09:08:47;100829.66;;;29.56;49.02
22872;BME280;11603;44.910;8.630;2023-06-22T09:11:14;100826.25;;;29.61;49.79
22872;BME280;11603;44.910;8.630;2023-06-22T09:13:39;100827.06;;;29.68;48.54
22872;BME280;11603;44.910;8.630;2023-06-22T09:16:05;100824.75;;;29.71;50.28
22872;BME280;11603;44.910;8.630;2023-06-22T09:18:30;100824.09;;;29.82;49.71
22872;BME280;11603;44.910;8.630;2023-06-22T09:20:56;100813.25;;;29.87;50.54
22872;BME280;11603;44.910;8.630;2023-06-22T09:23:21;100807.53;;;29.82;49.54
22872;BME280;11603;44.910;8.630;2023-06-22T09:25:47;100797.56;;;29.88;49.53
22872;BME280;11603;44.910;8.630;2023-06-22T09:28:16;100801.81;;;29.91;52.97
22872;BME280;11603;44.910;8.630;2023-06-22T09:30:45;100787.16;;;30.03;50.42
22872;BME280;11603;44.910;8.630;2023-06-22T09:33:12;100785.63;;;30.14;49.23
22872;BME280;11603;44.910;8.630;2023-06-22T09:35:38;100772.22;;;30.17;49.54
22872;BME280;11603;44.910;8.630;2023-06-22T09:38:04;100767.53;;;30.24;48.94
22872;BME280;11603;44.910;8.630;2023-06-22T09:40:29;100760.22;;;30.37;48.47
22872;BME280;11603;44.910;8.630;2023-06-22T09:42:55;100755.72;;;30.55;49.50
22872;BME280;11603;44.910;8.630;2023-06-22T09:45:20;100751.22;;;30.61;48.47
22872;BME280;11603;44.910;8.630;2023-06-22T09:47:46;100746.72;;;30.66;49.38
22872;BME280;11603;44.910;8.630;2023-06-22T09:50:11;100741.84;;;30.62;50.27
22872;BME280;11603;44.910;8.630;2023-06-22T09:52:37;100731.22;;;30.65;48.75
22872;BME280;11603;44.910;8.630;2023-06-22T09:55:03;100728.16;;;30.73;49.62
22872;BME280;11603;44.910;8.630;2023-06-22T09:57:29;100720.50;;;30.76;53.13
22872;BME280;11603;44.910;8.630;2023-06-22T09:59:54;100712.41;;;30.81;50.69
22872;BME280;11603;44.910;8.630;2023-06-22T10:02:20;100714.09;;;30.82;52.25
22872;BME280;11603;44.910;8.630;2023-06-22T10:04:45;100711.72;;;30.85;51.31
22872;BME280;11603;44.910;8.630;2023-06-22T10:07:11;100706.31;;;30.97;52.75
22872;BME280;11603;44.910;8.630;2023-06-22T10:09:37;100705.25;;;30.98;52.53
22872;BME280;11603;44.910;8.630;2023-06-22T10:12:03;100696.91;;;31.04;49.62
22872;BME280;11603;44.910;8.630;2023-06-22T10:14:28;100700.13;;;31.26;50.02
22872;BME280;11603;44.910;8.630;2023-06-22T10:16:54;100691.91;;;31.38;50.58
22872;BME280;11603;44.910;8.630;2023-06-22T10:19:20;100688.78;;;31.34;50.16
22872;BME280;11603;44.910;8.630;2023-06-22T10:21:45;100689.38;;;31.36;51.16
22872;BME280;11603;44.910;8.630;2023-06-22T10:24:11;100679.84;;;31.32;52.56
22872;BME280;11603;44.910;8.630;2023-06-22T10:26:37;100681.22;;;31.23;52.54
22872;BME280;11603;44.910;8.630;2023-06-22T10:29:03;100679.84;;;31.32;51.76
22872;BME280;11603;44.910;8.630;2023-06-22T10:31:28;100675.56;;;31.54;51.78
22872;BME280;11603;44.910;8.630;2023-06-22T10:33:55;100679.97;;;31.62;50.80
22872;BME280;11603;44.910;8.630;2023-06-22T10:36:23;100680.38;;;31.41;52.68
22872;BME280;11603;44.910;8.630;2023-06-22T10:38:49;100681.88;;;31.43;50.94
22872;BME280;11603;44.910;8.630;2023-06-22T10:41:15;100682.66;;;31.50;49.81
22872;BME280;11603;44.910;8.630;2023-06-22T10:43:41;100690.47;;;31.53;49.33
22872;BME280;11603;44.910;8.630;2023-06-22T10:46:07;100689.59;;;31.60;48.10
22872;BME280;11603;44.910;8.630;2023-06-22T10:48:33;100690.97;;;31.87;47.67
22872;BME280;11603;44.910;8.630;2023-06-22T10:50:58;100686.31;;;31.99;48.87
22872;BME280;11603;44.910;8.630;2023-06-22T10:53:24;100679.25;;;32.03;49.55
22872;BME280;11603;44.910;8.630;2023-06-22T10:55:49;100684.09;;;32.08;50.07
22872;BME280;11603;44.910;8.630;2023-06-22T10:58:17;100671.91;;;32.09;48.01
22872;BME280;11603;44.910;8.630;2023-06-22T11:00:43;100669.84;;;32.04;47.27
22872;BME280;11603;44.910;8.630;2023-06-22T11:03:08;100668.03;;;32.16;47.44
22872;BME280;11603;44.910;8.630;2023-06-22T11:05:35;100666.56;;;32.14;49.13
22872;BME280;11603;44.910;8.630;2023-06-22T11:08:01;100679.00;;;32.23;47.35
22872;BME280;11603;44.910;8.630;2023-06-22T11:10:26;100667.97;;;32.34;46.08
22872;BME280;11603;44.910;8.630;2023-06-22T11:12:52;100665.34;;;32.40;46.22
22872;BME280;11603;44.910;8.630;2023-06-22T11:15:18;100668.69;;;32.42;46.25
22872;BME280;11603;44.910;8.630;2023-06-22T11:17:44;100662.13;;;32.24;47.64
22872;BME280;11603;44.910;8.630;2023-06-22T11:20:10;100666.28;;;32.33;46.51
22872;BME280;11603;44.910;8.630;2023-06-22T11:22:40;100672.94;;;32.44;45.38
22872;BME280;11603;44.910;8.630;2023-06-22T11:25:06;100674.78;;;32.50;46.55
22872;BME280;11603;44.910;8.630;2023-06-22T11:27:32;100671.94;;;32.68;44.95
22872;BME280;11603;44.910;8.630;2023-06-22T11:29:57;100670.28;;;32.91;43.30
22872;BME280;11603;44.910;8.630;2023-06-22T11:32:23;100671.72;;;32.93;46.76
22872;BME280;11603;44.910;8.630;2023-06-22T11:34:49;100678.22;;;32.87;46.31
22872;BME280;11603;44.910;8.630;2023-06-22T11:37:14;100685.44;;;32.76;48.05
22872;BME280;11603;44.910;8.630;2023-06-22T11:39:41;100675.31;;;32.70;47.82
22872;BME280;11603;44.910;8.630;2023-06-22T11:42:07;100683.63;;;32.70;44.14
22872;BME280;11603;44.910;8.630;2023-06-22T11:44:33;100689.19;;;32.94;45.16
22872;BME280;11603;44.910;8.630;2023-06-22T11:46:58;100679.97;;;33.23;44.77
22872;BME280;11603;44.910;8.630;2023-06-22T11:49:29;100683.44;;;33.53;42.83
22872;BME280;11603;44.910;8.630;2023-06-22T11:51:54;100673.53;;;33.69;44.40
22872;BME280;11603;44.910;8.630;2023-06-22T11:54:20;100678.47;;;33.79;42.33
22872;BME280;11603;44.910;8.630;2023-06-22T11:56:45;100664.13;;;33.70;43.63
22872;BME280;11603;44.910;8.630;2023-06-22T11:59:10;100649.75;;;33.61;41.16
22872;BME280;11603;44.910;8.630;2023-06-22T12:01:36;100642.03;;;33.63;41.28
22872;BME280;11603;44.910;8.630;2023-06-22T12:04:02;100641.84;;;33.42;42.00
22872;BME280;11603;44.910;8.630;2023-06-22T12:06:31;100625.19;;;33.53;45.09
22872;BME280;11603;44.910;8.630;2023-06-22T12:08:57;100608.78;;;33.40;45.54
22872;BME280;11603;44.910;8.630;2023-06-22T12:11:22;100584.31;;;33.49;44.00
22872;BME280;11603;44.910;8.630;2023-06-22T12:13:48;100561.84;;;33.50;43.26
22872;BME280;11603;44.910;8.630;2023-06-22T12:16:13;100547.63;;;33.47;43.96
22872;BME280;11603;44.910;8.630;2023-06-22T12:18:39;100512.75;;;33.51;43.25
22872;BME280;11603;44.910;8.630;2023-06-22T12:21:04;100509.41;;;33.49;41.94
22872;BME280;11603;44.910;8.630;2023-06-22T12:23:30;100517.81;;;33.54;41.04
22872;BME280;11603;44.910;8.630;2023-06-22T12:25:55;100518.78;;;33.59;41.95
22872;BME280;11603;44.910;8.630;2023-06-22T12:28:21;100531.63;;;33.66;41.08
22872;BME280;11603;44.910;8.630;2023-06-22T12:30:48;100548.88;;;33.68;42.38
22872;BME280;11603;44.910;8.630;2023-06-22T12:33:14;100537.66;;;33.74;39.26
22872;BME280;11603;44.910;8.630;2023-06-22T12:35:40;100526.69;;;33.96;41.14
22872;BME280;11603;44.910;8.630;2023-06-22T12:38:05;100529.19;;;33.97;42.78
22872;BME280;11603;44.910;8.630;2023-06-22T12:40:32;100542.75;;;33.94;43.64
22872;BME280;11603;44.910;8.630;2023-06-22T12:42:58;100549.91;;;33.90;41.27
22872;BME280;11603;44.910;8.630;2023-06-22T12:45:24;100554.66;;;34.06;41.25
22872;BME280;11603;44.910;8.630;2023-06-22T12:47:50;100556.47;;;34.00;40.78
22872;BME280;11603;44.910;8.630;2023-06-22T12:50:17;100557.31;;;34.01;41.39
22872;BME280;11603;44.910;8.630;2023-06-22T12:52:43;100556.91;;;34.09;40.49